createdAt,value
2023-07-09T00:02:16.460Z,22.10
2023-07-09T00:04:44.345Z,21.90
2023-07-09T00:07:28.466Z,22.10
2023-07-09T00:09:56.847Z,21.80
2023-07-09T00:12:24.672Z,21.90
2023-07-09T00:14:52.214Z,21.80
2023-07-09T00:17:34.781Z,21.80
2023-07-09T00:20:06.372Z,21.80
2023-07-09T00:22:33.484Z,21.70
2023-07-09T00:25:00.382Z,21.70
2023-07-09T00:27:29.964Z,21.70
2023-07-09T00:29:57.062Z,21.60
2023-07-09T00:32:25.827Z,21.70
2023-07-09T00:34:54.947Z,21.60
2023-07-09T00:37:26.818Z,21.60
2023-07-09T00:39:53.846Z,21.50
2023-07-09T00:42:25.034Z,21.70
2023-07-09T00:44:54.654Z,21.40
2023-07-09T00:47:26.568Z,21.40
2023-07-09T00:50:05.393Z,21.40
2023-07-09T00:52:54.940Z,21.30
2023-07-09T00:55:29.106Z,21.30
2023-07-09T00:58:03.221Z,21.30
2023-07-09T01:00:47.226Z,21.20
2023-07-09T01:04:00.958Z,21.20
2023-07-09T01:06:45.585Z,21.20
2023-07-09T01:09:13.153Z,21.10
2023-07-09T01:11:40.262Z,21.10
2023-07-09T01:14:11.883Z,21.10
2023-07-09T01:16:48.009Z,21.00
2023-07-09T01:19:25.181Z,21.10
2023-07-09T01:22:00.933Z,21.00
2023-07-09T01:25:04.972Z,21.20
2023-07-09T01:27:47.256Z,20.80
2023-07-09T01:30:24.956Z,20.90
2023-07-09T01:32:57.553Z,20.90
2023-07-09T01:35:25.305Z,20.80
2023-07-09T01:37:53.810Z,20.80
2023-07-09T01:40:31.573Z,20.90
2023-07-09T01:43:02.432Z,20.80
2023-07-09T01:45:30.371Z,20.70
2023-07-09T01:47:58.090Z,20.90
2023-07-09T01:50:27.610Z,20.70
2023-07-09T01:52:57.075Z,20.60
2023-07-09T01:55:24.099Z,20.50
2023-07-09T01:57:53.337Z,20.80
2023-07-09T02:00:21.070Z,20.60
2023-07-09T02:02:49.436Z,20.60
2023-07-09T02:05:19.796Z,20.60
2023-07-09T02:07:47.915Z,20.50
2023-07-09T02:10:17.739Z,20.40
2023-07-09T02:12:45.380Z,20.40
2023-07-09T02:15:13.093Z,20.50
2023-07-09T02:17:40.420Z,20.40
2023-07-09T02:20:09.591Z,20.40
2023-07-09T02:22:38.529Z,20.30
2023-07-09T02:25:07.174Z,20.20
2023-07-09T02:27:35.702Z,20.30
2023-07-09T02:30:03.526Z,20.20
2023-07-09T02:32:30.666Z,20.20
2023-07-09T02:34:57.843Z,20.20
2023-07-09T02:37:27.569Z,20.00
2023-07-09T02:39:54.853Z,20.10
2023-07-09T02:42:24.123Z,20.10
2023-07-09T02:44:51.841Z,20.10
2023-07-09T02:47:20.485Z,20.10
2023-07-09T02:49:49.515Z,20.00
2023-07-09T02:52:16.758Z,20.00
2023-07-09T02:54:43.994Z,19.90
2023-07-09T02:57:11.178Z,20.00
2023-07-09T02:59:38.187Z,19.90
2023-07-09T03:02:05.841Z,19.90
2023-07-09T03:04:33.147Z,19.80
2023-07-09T03:07:00.994Z,19.90
2023-07-09T03:09:28.951Z,19.80
2023-07-09T03:11:56.534Z,19.80
2023-07-09T03:14:24.231Z,19.80
2023-07-09T03:16:51.750Z,19.80
2023-07-09T03:19:20.647Z,19.80
2023-07-09T03:21:47.790Z,19.70
2023-07-09T03:24:19.542Z,19.80
2023-07-09T03:26:47.631Z,19.80
2023-07-09T03:29:14.727Z,19.70
2023-07-09T03:31:41.832Z,19.80
2023-07-09T03:34:08.976Z,19.80
2023-07-09T03:36:38.878Z,19.80
2023-07-09T03:39:07.017Z,19.80
2023-07-09T03:41:35.032Z,19.80
2023-07-09T03:44:02.303Z,19.80
2023-07-09T03:46:29.313Z,19.80
2023-07-09T03:48:56.722Z,19.90
2023-07-09T03:51:24.072Z,19.90
2023-07-09T03:53:51.095Z,19.90
2023-07-09T03:56:18.132Z,19.90
2023-07-09T03:58:45.202Z,19.90
2023-07-09T04:01:12.169Z,20.00
2023-07-09T04:03:39.201Z,20.00
2023-07-09T04:06:06.474Z,20.10
2023-07-09T04:08:33.517Z,20.10
2023-07-09T04:11:03.440Z,20.20
2023-07-09T04:13:30.603Z,20.20
2023-07-09T04:15:58.150Z,20.50
2023-07-09T04:18:25.721Z,20.30
2023-07-09T04:20:53.283Z,20.40
2023-07-09T04:23:21.543Z,20.40
2023-07-09T04:25:48.653Z,20.50
2023-07-09T04:28:16.522Z,20.60
2023-07-09T04:30:51.870Z,20.60
2023-07-09T04:33:21.362Z,20.70
2023-07-09T04:35:50.366Z,20.80
2023-07-09T04:38:17.733Z,20.90
2023-07-09T04:40:45.188Z,21.00
2023-07-09T04:43:12.580Z,21.00
2023-07-09T04:45:39.678Z,21.20
2023-07-09T04:48:07.226Z,21.20
2023-07-09T04:50:34.507Z,21.30
2023-07-09T04:53:01.949Z,21.50
2023-07-09T04:55:29.280Z,21.60
2023-07-09T04:57:56.401Z,21.60
2023-07-09T05:00:23.499Z,21.70
2023-07-09T05:02:50.692Z,21.70
2023-07-09T05:05:18.023Z,21.80
2023-07-09T05:07:44.989Z,21.90
2023-07-09T05:10:12.111Z,22.00
2023-07-09T05:12:52.807Z,22.20
2023-07-09T05:15:22.543Z,22.10
2023-07-09T05:17:49.571Z,22.30
2023-07-09T05:20:17.237Z,22.60
2023-07-09T05:22:44.541Z,22.60
2023-07-09T05:25:12.076Z,22.70
2023-07-09T05:27:39.185Z,22.80
2023-07-09T05:30:07.308Z,22.90
2023-07-09T05:32:35.058Z,23.00
2023-07-09T05:35:02.340Z,23.20
2023-07-09T05:37:29.418Z,23.30
2023-07-09T05:39:56.607Z,23.40
2023-07-09T05:42:23.702Z,23.50
2023-07-09T05:44:50.809Z,23.70
2023-07-09T05:47:17.846Z,23.70
2023-07-09T05:49:44.951Z,23.90
2023-07-09T05:52:12.009Z,24.00
2023-07-09T05:54:38.911Z,24.30
2023-07-09T05:57:06.428Z,24.00
2023-07-09T05:59:33.423Z,24.40
2023-07-09T06:02:02.214Z,24.50
2023-07-09T06:04:30.667Z,24.60
2023-07-09T06:06:58.399Z,24.70
2023-07-09T06:09:25.553Z,24.80
2023-07-09T06:11:53.893Z,25.20
2023-07-09T06:14:20.848Z,25.10
2023-07-09T06:16:47.947Z,25.20
2023-07-09T06:19:14.903Z,25.20
2023-07-09T06:21:42.219Z,25.30
2023-07-09T06:24:09.756Z,25.40
2023-07-09T06:26:36.956Z,25.30
2023-07-09T06:29:04.170Z,25.60
2023-07-09T06:31:32.150Z,25.80
2023-07-09T06:34:00.117Z,26.00
2023-07-09T06:36:27.199Z,26.00
2023-07-09T06:38:54.195Z,26.00
2023-07-09T06:41:21.931Z,26.20
2023-07-09T06:43:48.829Z,26.50
2023-07-09T06:46:16.218Z,26.40
2023-07-09T06:48:43.238Z,26.50
2023-07-09T06:51:10.460Z,26.60
2023-07-09T06:53:37.563Z,26.90
2023-07-09T06:56:04.933Z,26.80
2023-07-09T06:58:34.376Z,27.00
2023-07-09T07:01:05.409Z,27.00
2023-07-09T07:03:34.790Z,27.20
2023-07-09T07:06:02.744Z,27.30
2023-07-09T07:08:30.328Z,27.40
2023-07-09T07:11:03.261Z,27.30
2023-07-09T07:13:39.191Z,27.60
2023-07-09T07:16:09.781Z,27.70
2023-07-09T07:18:37.522Z,27.90
2023-07-09T07:21:05.643Z,27.90
2023-07-09T07:23:33.016Z,28.00
2023-07-09T07:26:00.142Z,28.10
2023-07-09T07:28:27.159Z,28.30
2023-07-09T07:31:03.139Z,28.40
2023-07-09T07:33:30.279Z,28.50
2023-07-09T07:36:16.628Z,28.70
2023-07-09T07:38:44.563Z,28.80
2023-07-09T07:41:12.048Z,28.90
2023-07-09T07:43:39.346Z,29.10
2023-07-09T07:46:09.361Z,29.30
2023-07-09T07:48:36.766Z,29.40
2023-07-09T07:51:04.550Z,29.60
2023-07-09T07:53:32.549Z,29.70
2023-07-09T07:56:00.026Z,30.00
2023-07-09T07:58:27.083Z,30.20
2023-07-09T08:00:58.306Z,30.60
2023-07-09T08:03:26.291Z,30.80
2023-07-09T08:05:54.121Z,31.00
2023-07-09T08:08:22.015Z,31.30
2023-07-09T08:10:52.052Z,31.50
2023-07-09T08:13:19.926Z,31.80
2023-07-09T08:15:48.003Z,32.10
2023-07-09T08:18:16.106Z,32.40
2023-07-09T08:20:46.572Z,32.70
2023-07-09T08:23:13.666Z,33.00
2023-07-09T08:25:40.611Z,33.40
2023-07-09T08:28:07.839Z,33.80
2023-07-09T08:30:35.751Z,34.20
2023-07-09T08:33:02.887Z,34.60
2023-07-09T08:35:36.387Z,34.90
2023-07-09T08:38:04.807Z,35.20
2023-07-09T08:40:31.999Z,35.60
2023-07-09T08:43:23.398Z,36.00
2023-07-09T08:46:06.936Z,36.40
2023-07-09T08:48:37.845Z,36.90
2023-07-09T08:51:25.212Z,37.30
2023-07-09T08:53:59.421Z,37.70
2023-07-09T08:56:28.533Z,38.20
2023-07-09T08:59:00.360Z,38.60
2023-07-09T09:01:47.840Z,39.10
2023-07-09T09:04:23.546Z,39.50
2023-07-09T09:07:08.482Z,40.00
2023-07-09T09:09:42.737Z,40.40
2023-07-09T09:12:29.468Z,40.90
2023-07-09T09:15:02.611Z,41.30
2023-07-09T09:17:30.905Z,41.70
2023-07-09T09:20:05.093Z,42.10
2023-07-09T09:22:48.504Z,42.50
2023-07-09T09:25:32.788Z,42.90
2023-07-09T09:28:02.356Z,43.20
2023-07-09T09:30:30.455Z,43.70
2023-07-09T09:33:00.521Z,44.10
2023-07-09T09:35:37.774Z,44.50
2023-07-09T09:38:13.162Z,44.90
2023-07-09T09:40:40.920Z,45.40
2023-07-09T09:43:34.164Z,45.70
2023-07-09T09:46:07.136Z,46.10
2023-07-09T09:48:34.944Z,46.50
2023-07-09T09:51:06.377Z,46.80
2023-07-09T09:53:42.194Z,47.20
2023-07-09T09:56:19.428Z,47.60
2023-07-09T09:58:46.585Z,47.90
2023-07-09T10:01:18.567Z,48.20
2023-07-09T10:03:53.008Z,48.50
2023-07-09T10:06:26.025Z,48.70
2023-07-09T10:09:30.275Z,48.90
2023-07-09T10:12:14.458Z,49.20
2023-07-09T10:14:56.946Z,49.50
2023-07-09T10:17:35.862Z,49.70
2023-07-09T10:20:21.685Z,49.90
2023-07-09T10:23:24.637Z,50.10
2023-07-09T10:26:17.421Z,50.40
2023-07-09T10:29:28.820Z,50.60
2023-07-09T10:32:11.105Z,50.80
2023-07-09T10:35:03.002Z,51.00
2023-07-09T10:37:57.177Z,51.00
2023-07-09T10:40:42.584Z,51.30
2023-07-09T10:43:45.916Z,51.40
2023-07-09T10:46:22.340Z,51.70
2023-07-09T10:48:53.095Z,52.00
2023-07-09T10:51:38.762Z,52.30
2023-07-09T10:54:34.219Z,52.40
2023-07-09T10:57:46.979Z,52.70
2023-07-09T11:00:19.885Z,53.00
2023-07-09T11:02:59.096Z,53.20
2023-07-09T11:05:26.400Z,53.40
2023-07-09T11:08:04.387Z,53.60
2023-07-09T11:10:48.303Z,53.70
2023-07-09T11:13:51.921Z,53.90
2023-07-09T11:16:32.667Z,53.90
2023-07-09T11:19:04.068Z,54.00
2023-07-09T11:21:31.383Z,54.10
2023-07-09T11:24:01.201Z,54.10
2023-07-09T11:26:35.578Z,54.10
2023-07-09T11:29:05.746Z,54.20
2023-07-09T11:31:40.799Z,54.30
2023-07-09T11:34:19.443Z,54.40
2023-07-09T11:37:02.358Z,54.50
2023-07-09T11:39:31.609Z,54.60
2023-07-09T11:41:59.320Z,54.70
2023-07-09T11:44:30.631Z,54.70
2023-07-09T11:47:45.295Z,54.70
2023-07-09T11:50:28.974Z,54.60
2023-07-09T11:53:03.391Z,54.60
2023-07-09T11:55:46.160Z,54.50
2023-07-09T11:58:19.779Z,54.50
2023-07-09T12:00:55.650Z,54.50
2023-07-09T12:03:28.624Z,54.60
2023-07-09T12:06:01.625Z,54.60
2023-07-09T12:08:35.412Z,54.70
2023-07-09T12:11:02.856Z,54.80
2023-07-09T12:13:30.260Z,54.90
2023-07-09T12:15:57.276Z,55.10
2023-07-09T12:18:24.228Z,55.20
2023-07-09T12:20:53.911Z,55.30
2023-07-09T12:23:30.178Z,55.40
2023-07-09T12:26:02.761Z,55.50
2023-07-09T12:28:31.331Z,55.50
2023-07-09T12:30:58.739Z,55.70
2023-07-09T12:33:29.589Z,55.70
2023-07-09T12:36:08.851Z,55.70
2023-07-09T12:39:06.224Z,55.70
2023-07-09T12:41:40.087Z,55.80
2023-07-09T12:44:16.256Z,55.80
2023-07-09T12:46:45.685Z,55.80
2023-07-09T12:49:30.345Z,55.90
2023-07-09T12:51:58.941Z,55.90
2023-07-09T12:54:29.454Z,56.00
2023-07-09T12:56:57.791Z,56.00
2023-07-09T12:59:37.076Z,56.10
2023-07-09T13:02:25.448Z,56.20
2023-07-09T13:05:06.834Z,56.50
2023-07-09T13:07:38.934Z,56.60
2023-07-09T13:10:26.952Z,56.60
2023-07-09T13:12:57.795Z,56.70
2023-07-09T13:15:46.403Z,56.70
2023-07-09T13:18:15.707Z,56.70
2023-07-09T13:20:45.980Z,56.60
2023-07-09T13:23:17.517Z,56.60
2023-07-09T13:25:48.028Z,56.50
2023-07-09T13:28:22.936Z,56.30
2023-07-09T13:30:53.093Z,56.10
2023-07-09T13:33:20.913Z,56.10
2023-07-09T13:35:49.386Z,56.00
2023-07-09T13:38:20.019Z,55.90
2023-07-09T13:40:54.604Z,55.80
2023-07-09T13:43:36.025Z,55.60
2023-07-09T13:46:07.662Z,55.50
2023-07-09T13:48:36.204Z,55.40
2023-07-09T13:51:18.670Z,55.30
2023-07-09T13:53:47.128Z,55.20
2023-07-09T13:56:14.181Z,55.20
2023-07-09T13:58:41.274Z,55.20
2023-07-09T14:01:23.566Z,55.10
2023-07-09T14:03:52.126Z,55.00
2023-07-09T14:06:19.521Z,55.10
2023-07-09T14:08:46.680Z,55.00
2023-07-09T14:11:17.183Z,54.90
2023-07-09T14:13:44.930Z,54.70
2023-07-09T14:16:13.654Z,54.50
2023-07-09T14:18:41.029Z,54.30
2023-07-09T14:21:15.223Z,54.10
2023-07-09T14:23:42.650Z,54.00
2023-07-09T14:26:11.483Z,53.90
2023-07-09T14:28:40.074Z,53.90
2023-07-09T14:31:28.186Z,53.80
2023-07-09T14:33:57.763Z,53.70
2023-07-09T14:36:24.866Z,53.60
2023-07-09T14:38:51.789Z,53.50
2023-07-09T14:41:25.730Z,53.30
2023-07-09T14:43:55.924Z,53.00
2023-07-09T14:46:22.975Z,52.70
2023-07-09T14:48:50.623Z,52.30
2023-07-09T14:51:19.020Z,52.10
2023-07-09T14:53:46.052Z,51.80
2023-07-09T14:56:15.519Z,51.60
2023-07-09T14:58:42.745Z,51.30
2023-07-09T15:01:15.947Z,51.20
2023-07-09T15:03:43.456Z,50.90
2023-07-09T15:06:10.569Z,50.80
2023-07-09T15:08:38.241Z,50.60
2023-07-09T15:11:06.003Z,50.50
2023-07-09T15:13:36.644Z,50.50
2023-07-09T15:16:05.937Z,50.30
2023-07-09T15:18:37.867Z,50.20
2023-07-09T15:21:06.678Z,50.10
2023-07-09T15:23:41.256Z,50.00
2023-07-09T15:26:16.009Z,49.80
2023-07-09T15:28:43.132Z,49.70
2023-07-09T15:31:13.448Z,49.50
2023-07-09T15:33:40.549Z,49.40
2023-07-09T15:36:13.916Z,49.20
2023-07-09T15:38:43.008Z,48.90
2023-07-09T15:41:15.456Z,48.70
2023-07-09T15:43:46.035Z,48.40
2023-07-09T15:46:19.720Z,48.20
2023-07-09T15:48:47.840Z,48.00
2023-07-09T15:51:15.011Z,47.80
2023-07-09T15:53:41.898Z,47.50
2023-07-09T15:56:22.724Z,47.30
2023-07-09T15:58:52.340Z,47.00
2023-07-09T16:01:19.911Z,46.80
2023-07-09T16:03:53.550Z,46.50
2023-07-09T16:06:21.354Z,46.20
2023-07-09T16:08:48.653Z,46.00
2023-07-09T16:11:18.450Z,45.70
2023-07-09T16:13:46.901Z,45.40
2023-07-09T16:16:19.627Z,45.20
2023-07-09T16:18:49.928Z,44.90
2023-07-09T16:21:29.874Z,44.80
2023-07-09T16:23:59.624Z,44.40
2023-07-09T16:26:26.917Z,44.20
2023-07-09T16:28:54.688Z,44.10
2023-07-09T16:31:22.153Z,43.80
2023-07-09T16:33:49.462Z,43.60
2023-07-09T16:36:18.903Z,43.50
2023-07-09T16:38:47.553Z,43.20
2023-07-09T16:41:14.896Z,42.90
2023-07-09T16:43:42.429Z,42.70
2023-07-09T16:46:25.448Z,42.40
2023-07-09T16:48:53.085Z,42.00
2023-07-09T16:51:19.967Z,41.70
2023-07-09T16:53:46.914Z,41.40
2023-07-09T16:56:15.167Z,41.00
2023-07-09T16:58:42.453Z,40.70
2023-07-09T17:01:10.575Z,40.40
2023-07-09T17:03:37.833Z,40.00
2023-07-09T17:06:04.982Z,39.70
2023-07-09T17:08:31.886Z,39.50
2023-07-09T17:11:02.427Z,39.10
2023-07-09T17:13:29.707Z,38.80
2023-07-09T17:15:57.088Z,38.60
2023-07-09T17:18:30.315Z,38.40
2023-07-09T17:21:00.593Z,38.10
2023-07-09T17:23:30.506Z,37.80
2023-07-09T17:26:00.366Z,37.70
2023-07-09T17:28:31.506Z,37.50
2023-07-09T17:30:59.495Z,37.30
2023-07-09T17:33:26.917Z,37.00
2023-07-09T17:35:56.001Z,36.80
2023-07-09T17:38:35.493Z,36.70
2023-07-09T17:41:03.280Z,36.50
2023-07-09T17:43:30.513Z,36.40
2023-07-09T17:45:57.897Z,36.10
2023-07-09T17:48:33.343Z,36.00
2023-07-09T17:51:00.797Z,35.80
2023-07-09T17:53:34.707Z,35.60
2023-07-09T17:56:02.619Z,35.50
2023-07-09T17:58:40.362Z,35.30
2023-07-09T18:01:08.479Z,35.10
2023-07-09T18:03:35.877Z,35.00
2023-07-09T18:06:04.164Z,34.80
2023-07-09T18:08:33.084Z,34.70
2023-07-09T18:11:00.402Z,34.60
2023-07-09T18:13:30.492Z,34.40
2023-07-09T18:15:58.678Z,34.30
2023-07-09T18:18:25.796Z,34.20
2023-07-09T18:20:53.045Z,34.00
2023-07-09T18:23:23.104Z,33.90
2023-07-09T18:25:51.069Z,33.80
2023-07-09T18:28:31.695Z,33.60
2023-07-09T18:31:15.779Z,33.60
2023-07-09T18:33:45.607Z,33.50
2023-07-09T18:36:12.763Z,33.30
2023-07-09T18:38:39.809Z,33.10
2023-07-09T18:41:16.635Z,33.00
2023-07-09T18:43:45.358Z,32.90
2023-07-09T18:46:12.670Z,32.80
2023-07-09T18:48:40.085Z,32.70
2023-07-09T18:51:11.620Z,32.50
2023-07-09T18:53:38.722Z,32.30
2023-07-09T18:56:06.624Z,32.20
2023-07-09T18:58:36.226Z,32.10
2023-07-09T19:01:06.512Z,31.90
2023-07-09T19:03:36.919Z,31.80
2023-07-09T19:06:05.050Z,31.60
2023-07-09T19:08:35.874Z,31.50
2023-07-09T19:11:03.778Z,31.40
2023-07-09T19:13:30.981Z,31.20
2023-07-09T19:16:03.578Z,31.10
2023-07-09T19:18:35.794Z,30.90
2023-07-09T19:21:03.037Z,30.80
2023-07-09T19:23:30.033Z,30.70
2023-07-09T19:25:57.089Z,30.50
2023-07-09T19:28:24.346Z,30.40
2023-07-09T19:30:53.696Z,30.20
2023-07-09T19:33:35.108Z,30.10
2023-07-09T19:36:02.707Z,30.00
2023-07-09T19:38:30.483Z,29.90
2023-07-09T19:40:57.598Z,29.80
2023-07-09T19:43:26.341Z,29.70
2023-07-09T19:45:53.359Z,29.50
2023-07-09T19:48:28.469Z,29.40
2023-07-09T19:50:55.868Z,29.30
2023-07-09T19:53:29.105Z,29.20
2023-07-09T19:55:57.496Z,29.10
2023-07-09T19:58:25.197Z,29.00
2023-07-09T20:00:52.964Z,28.90
2023-07-09T20:03:26.384Z,28.80
2023-07-09T20:05:53.806Z,28.70
2023-07-09T20:08:24.985Z,28.60
2023-07-09T20:11:02.445Z,28.40
2023-07-09T20:13:35.635Z,28.40
2023-07-09T20:16:03.401Z,28.30
2023-07-09T20:18:31.465Z,28.30
2023-07-09T20:21:03.620Z,28.20
2023-07-09T20:23:31.512Z,28.10
2023-07-09T20:25:59.199Z,28.10
2023-07-09T20:28:29.680Z,28.00
2023-07-09T20:30:57.972Z,27.90
2023-07-09T20:33:27.768Z,27.90
2023-07-09T20:35:55.211Z,27.80
2023-07-09T20:38:26.625Z,27.60
2023-07-09T20:40:54.721Z,27.70
2023-07-09T20:43:26.719Z,27.60
2023-07-09T20:45:54.305Z,27.50
2023-07-09T20:48:21.878Z,27.40
2023-07-09T20:50:49.323Z,27.40
2023-07-09T20:53:19.237Z,27.40
2023-07-09T20:55:47.847Z,27.30
2023-07-09T20:58:22.968Z,27.30
2023-07-09T21:00:53.746Z,27.20
2023-07-09T21:03:26.703Z,27.30
2023-07-09T21:05:54.542Z,27.10
2023-07-09T21:08:27.470Z,27.10
2023-07-09T21:10:54.977Z,27.10
2023-07-09T21:13:25.447Z,27.00
2023-07-09T21:15:55.882Z,27.00
2023-07-09T21:18:28.107Z,27.00
2023-07-09T21:20:55.143Z,27.00
2023-07-09T21:23:24.172Z,27.00
2023-07-09T21:25:52.308Z,26.90
2023-07-09T21:28:19.399Z,26.90
2023-07-09T21:30:46.719Z,26.80
2023-07-09T21:33:20.700Z,26.80
2023-07-09T21:35:48.202Z,26.80
2023-07-09T21:38:24.358Z,26.70
2023-07-09T21:40:53.446Z,26.70
2023-07-09T21:43:21.430Z,26.60
2023-07-09T21:45:55.771Z,26.60
2023-07-09T21:48:29.280Z,26.60
2023-07-09T21:50:56.487Z,26.60
2023-07-09T21:53:45.779Z,26.60
2023-07-09T21:56:14.368Z,26.60
2023-07-09T21:58:41.493Z,26.60
2023-07-09T22:01:27.031Z,26.50
2023-07-09T22:03:54.098Z,26.50
2023-07-09T22:06:21.083Z,26.50
2023-07-09T22:08:48.266Z,26.40
2023-07-09T22:11:29.903Z,26.40
2023-07-09T22:13:58.943Z,26.40
2023-07-09T22:16:27.683Z,26.40
2023-07-09T22:18:55.853Z,26.30
2023-07-09T22:21:22.898Z,26.30
2023-07-09T22:23:53.677Z,26.20
2023-07-09T22:26:20.761Z,26.20
2023-07-09T22:28:48.776Z,26.10
2023-07-09T22:31:16.211Z,26.10
2023-07-09T22:33:43.376Z,26.10
2023-07-09T22:36:13.074Z,26.20
2023-07-09T22:38:40.177Z,26.00
2023-07-09T22:41:07.517Z,26.00
2023-07-09T22:43:34.890Z,26.00
2023-07-09T22:46:02.880Z,25.90
2023-07-09T22:48:30.825Z,25.90
2023-07-09T22:50:58.174Z,25.90
2023-07-09T22:53:26.523Z,25.90
2023-07-09T22:55:54.438Z,25.80
2023-07-09T22:58:22.585Z,25.80
2023-07-09T23:01:04.320Z,25.80
2023-07-09T23:03:38.693Z,25.80
2023-07-09T23:06:22.333Z,25.80
2023-07-09T23:08:51.148Z,25.70
2023-07-09T23:11:26.815Z,25.80
2023-07-09T23:13:54.791Z,25.70
2023-07-09T23:16:26.269Z,25.70
2023-07-09T23:18:53.728Z,25.70
2023-07-09T23:21:24.852Z,25.60
2023-07-09T23:24:02.511Z,25.60
2023-07-09T23:26:31.206Z,25.60
2023-07-09T23:28:58.790Z,25.60
2023-07-09T23:31:32.992Z,25.60
2023-07-09T23:34:00.793Z,25.60
2023-07-09T23:36:28.083Z,25.60
2023-07-09T23:38:55.330Z,25.50
2023-07-09T23:41:30.032Z,25.50
2023-07-09T23:43:59.712Z,25.50
2023-07-09T23:46:39.768Z,25.50
2023-07-09T23:49:10.926Z,25.50
2023-07-09T23:51:38.739Z,25.50
2023-07-09T23:54:10.219Z,25.40
2023-07-09T23:56:37.446Z,25.50
2023-07-09T23:59:05.851Z,25.50
